Startpagina
METAR-TAF:

METAR-TAF

Vliegvelden :

Imperatriz, Maranhão, Brazilië

breedte: 05-32S, lengte: 047-30W, hoogte: 123 m

Actueel weer

Dit bericht is 45 minuten geleden gemaakt, om 18:00 UTC
Wind 4 kt uit het oostnoordoosten
Temperatuur 33°C
Vochtigheid 44%
Druk 1012 hPa
Zicht 10 km of meer
Verspreide wolken op 3000 ft

METAR: SBIZ 171800Z 07004KT 9999 SCT030 33/19 Q1012

Tijdstip: 15:45 (18:45 UTC)

Verwachting

Dit bericht is 3 uur en het 45 minuten geleden gemaakt, om 15:00 UTC
Verwachting geldig van 17 om 18 UTC tot 18 om 06 UTC
Wind 5 kt uit het oostzuidoosten
Zicht 10 km of meer
Verspreide wolken op 2500 ft
Wijzigt naar
van 17 om 21 UTC tot 17 om 23 UTC
Wind 4 kt uit het oosten

TAF: SBIZ 171500Z 1718/1806 12005KT 9999 SCT025 TX34/1718Z TN23/1806Z BECMG 1721/1723 08004KT RMK PGU

Waarnemingen en weersverwachtingen van meer dan 4000 vliegvelden (METAR en TAF).

De beschikbare stations zijn de gele en rode punten op de kaart.

Ga met uw muis naar het station om de naam te zien.

Klik dan om waarnemingen en weersverwachtingen te zien.

kaart wijzigen: klik op de groene knoppen met een zwart kruis om in te zoomen, op de groene knop met een streepje om uit te zoomen of op de groene pijlen voor aangrenzende kaarten.


METAR-TAF: